sensor_id;sensor_type;location;lat;lon;timestamp;pressure;altitude;pressure_sealevel;temperature;humidity
69909;BME280;57190;47.918;8.112;2024-01-27T19:01:21;92328.59;;;0.84;90.45
69909;BME280;57190;47.918;8.112;2024-01-27T19:03:46;92337.16;;;0.78;90.38
69909;BME280;57190;47.918;8.112;2024-01-27T19:06:12;92338.84;;;0.71;90.25
69909;BME280;57190;47.918;8.112;2024-01-27T19:08:41;92339.00;;;0.69;90.08
69909;BME280;57190;47.918;8.112;2024-01-27T19:11:07;92342.94;;;0.73;89.83
69909;BME280;57190;47.918;8.112;2024-01-27T19:13:32;92340.97;;;0.75;89.06
69909;BME280;57190;47.918;8.112;2024-01-27T19:15:57;92352.75;;;0.80;89.04
69909;BME280;57190;47.918;8.112;2024-01-27T19:18:25;92336.19;;;0.79;88.72
69909;BME280;57190;47.918;8.112;2024-01-27T19:20:50;92347.19;;;0.74;88.23
69909;BME280;57190;47.918;8.112;2024-01-27T19:23:16;92341.81;;;0.68;87.67
69909;BME280;57190;47.918;8.112;2024-01-27T19:25:42;92339.88;;;0.61;87.81
69909;BME280;57190;47.918;8.112;2024-01-27T19:28:09;92346.25;;;0.59;87.49
69909;BME280;57190;47.918;8.112;2024-01-27T19:30:34;92330.34;;;0.60;87.59
69909;BME280;57190;47.918;8.112;2024-01-27T19:33:00;92333.13;;;0.67;86.98
69909;BME280;57190;47.918;8.112;2024-01-27T19:35:26;92330.97;;;0.71;86.77
69909;BME280;57190;47.918;8.112;2024-01-27T19:37:52;92325.53;;;0.72;86.83
69909;BME280;57190;47.918;8.112;2024-01-27T19:40:18;92334.56;;;0.70;86.68
69909;BME280;57190;47.918;8.112;2024-01-27T19:42:44;92335.56;;;0.69;86.57
69909;BME280;57190;47.918;8.112;2024-01-27T19:45:10;92332.63;;;0.63;86.40
69909;BME280;57190;47.918;8.112;2024-01-27T19:47:36;92333.13;;;0.67;86.44
69909;BME280;57190;47.918;8.112;2024-01-27T19:50:02;92325.72;;;0.71;86.18
69909;BME280;57190;47.918;8.112;2024-01-27T19:52:30;92326.53;;;0.71;85.98
69909;BME280;57190;47.918;8.112;2024-01-27T19:54:56;92334.09;;;0.66;85.82
69909;BME280;57190;47.918;8.112;2024-01-27T19:57:23;92325.44;;;0.57;84.79
69909;BME280;57190;47.918;8.112;2024-01-27T19:59:48;92331.03;;;0.54;85.23
69909;BME280;57190;47.918;8.112;2024-01-27T20:02:14;92330.53;;;0.51;85.23
69909;BME280;57190;47.918;8.112;2024-01-27T20:04:40;92327.09;;;0.50;85.31
69909;BME280;57190;47.918;8.112;2024-01-27T20:07:09;92330.06;;;0.47;85.36
69909;BME280;57190;47.918;8.112;2024-01-27T20:09:34;92322.69;;;0.42;85.28
69909;BME280;57190;47.918;8.112;2024-01-27T20:12:00;92328.13;;;0.41;85.62
69909;BME280;57190;47.918;8.112;2024-01-27T20:14:26;92327.97;;;0.34;85.86
69909;BME280;57190;47.918;8.112;2024-01-27T20:16:54;92332.25;;;0.27;85.09
69909;BME280;57190;47.918;8.112;2024-01-27T20:19:20;92336.88;;;0.25;85.20
69909;BME280;57190;47.918;8.112;2024-01-27T20:21:49;92325.53;;;0.24;85.53
69909;BME280;57190;47.918;8.112;2024-01-27T20:24:15;92323.59;;;0.18;85.60
69909;BME280;57190;47.918;8.112;2024-01-27T20:26:41;92321.63;;;0.20;85.43
69909;BME280;57190;47.918;8.112;2024-01-27T20:29:07;92322.63;;;0.11;85.66
69909;BME280;57190;47.918;8.112;2024-01-27T20:31:33;92324.13;;;0.05;85.74
69909;BME280;57190;47.918;8.112;2024-01-27T20:34:01;92326.09;;;0.03;86.18
69909;BME280;57190;47.918;8.112;2024-01-27T20:36:27;92322.47;;;0.04;85.51
69909;BME280;57190;47.918;8.112;2024-01-27T20:38:53;92324.78;;;0.07;85.49
69909;BME280;57190;47.918;8.112;2024-01-27T20:41:19;92315.41;;;0.05;85.54
69909;BME280;57190;47.918;8.112;2024-01-27T20:43:45;92312.16;;;0.03;85.81
69909;BME280;57190;47.918;8.112;2024-01-27T20:46:12;92312.50;;;-0.01;85.79
69909;BME280;57190;47.918;8.112;2024-01-27T20:48:38;92314.13;;;0.01;85.63
69909;BME280;57190;47.918;8.112;2024-01-27T20:51:04;92302.81;;;0.08;85.56
69909;BME280;57190;47.918;8.112;2024-01-27T20:53:30;92309.84;;;0.08;85.49
69909;BME280;57190;47.918;8.112;2024-01-27T20:55:55;92307.91;;;0.02;85.53
69909;BME280;57190;47.918;8.112;2024-01-27T20:58:21;92309.56;;;-0.06;85.28
69909;BME280;57190;47.918;8.112;2024-01-27T21:00:46;92304.97;;;-0.12;86.09
69909;BME280;57190;47.918;8.112;2024-01-27T21:03:12;92301.03;;;-0.08;85.71
69909;BME280;57190;47.918;8.112;2024-01-27T21:05:38;92296.91;;;-0.02;85.92
69909;BME280;57190;47.918;8.112;2024-01-27T21:08:03;92295.47;;;-0.05;85.75
69909;BME280;57190;47.918;8.112;2024-01-27T21:10:29;92296.75;;;-0.09;86.40
69909;BME280;57190;47.918;8.112;2024-01-27T21:12:55;92289.50;;;0.10;86.55
69909;BME280;57190;47.918;8.112;2024-01-27T21:15:21;92297.19;;;0.20;85.94
69909;BME280;57190;47.918;8.112;2024-01-27T21:17:49;92298.34;;;0.17;85.60
69909;BME280;57190;47.918;8.112;2024-01-27T21:20:15;92298.88;;;0.04;85.66
69909;BME280;57190;47.918;8.112;2024-01-27T21:22:41;92296.06;;;0.06;85.49
69909;BME280;57190;47.918;8.112;2024-01-27T21:25:08;92299.19;;;0.01;85.96
69909;BME280;57190;47.918;8.112;2024-01-27T21:27:34;92292.19;;;-0.07;85.79
69909;BME280;57190;47.918;8.112;2024-01-27T21:30:00;92294.66;;;-0.13;85.92
69909;BME280;57190;47.918;8.112;2024-01-27T21:32:26;92293.97;;;-0.07;86.20
69909;BME280;57190;47.918;8.112;2024-01-27T21:34:52;92291.50;;;-0.01;86.01
69909;BME280;57190;47.918;8.112;2024-01-27T21:37:18;92300.03;;;-0.07;86.05
69909;BME280;57190;47.918;8.112;2024-01-27T21:39:44;92295.63;;;-0.14;86.28
69909;BME280;57190;47.918;8.112;2024-01-27T21:42:09;92293.97;;;-0.07;86.13
69909;BME280;57190;47.918;8.112;2024-01-27T21:44:35;92295.44;;;0.04;86.37
69909;BME280;57190;47.918;8.112;2024-01-27T21:47:00;92295.09;;;-0.02;86.01
69909;BME280;57190;47.918;8.112;2024-01-27T21:49:26;92294.44;;;0.05;86.81
69909;BME280;57190;47.918;8.112;2024-01-27T21:51:52;92293.28;;;0.07;85.74
69909;BME280;57190;47.918;8.112;2024-01-27T21:54:17;92289.84;;;0.07;86.07
69909;BME280;57190;47.918;8.112;2024-01-27T21:56:43;92290.34;;;0.02;86.58
69909;BME280;57190;47.918;8.112;2024-01-27T21:59:09;92302.00;;;-0.01;85.73
69909;BME280;57190;47.918;8.112;2024-01-27T22:01:35;92298.72;;;-0.03;86.30
69909;BME280;57190;47.918;8.112;2024-01-27T22:04:01;92296.75;;;-0.01;86.00
69909;BME280;57190;47.918;8.112;2024-01-27T22:06:26;92288.22;;;-0.03;85.47
69909;BME280;57190;47.918;8.112;2024-01-27T22:08:52;92290.72;;;-0.09;85.84
69909;BME280;57190;47.918;8.112;2024-01-27T22:11:19;92290.22;;;-0.13;85.78
69909;BME280;57190;47.918;8.112;2024-01-27T22:13:45;92288.09;;;-0.09;85.65
69909;BME280;57190;47.918;8.112;2024-01-27T22:16:14;92283.97;;;-0.12;85.33
69909;BME280;57190;47.918;8.112;2024-01-27T22:18:40;92283.34;;;-0.14;84.75
69909;BME280;57190;47.918;8.112;2024-01-27T22:21:05;92287.13;;;-0.25;84.87
69909;BME280;57190;47.918;8.112;2024-01-27T22:23:31;92283.88;;;-0.27;85.45
69909;BME280;57190;47.918;8.112;2024-01-27T22:25:56;92277.97;;;-0.29;85.05
69909;BME280;57190;47.918;8.112;2024-01-27T22:28:34;92286.47;;;-0.27;85.76
69909;BME280;57190;47.918;8.112;2024-01-27T22:30:59;92280.75;;;-0.22;85.31
69909;BME280;57190;47.918;8.112;2024-01-27T22:33:25;92278.75;;;-0.20;85.48
69909;BME280;57190;47.918;8.112;2024-01-27T22:35:50;92278.44;;;-0.25;85.35
69909;BME280;57190;47.918;8.112;2024-01-27T22:38:16;92277.28;;;-0.31;84.98
69909;BME280;57190;47.918;8.112;2024-01-27T22:40:43;92267.81;;;-0.40;84.75
69909;BME280;57190;47.918;8.112;2024-01-27T22:43:09;92276.16;;;-0.45;84.90
69909;BME280;57190;47.918;8.112;2024-01-27T22:45:36;92268.47;;;-0.46;85.51
69909;BME280;57190;47.918;8.112;2024-01-27T22:48:01;92270.13;;;-0.45;85.70
69909;BME280;57190;47.918;8.112;2024-01-27T22:50:27;92275.19;;;-0.44;85.50
69909;BME280;57190;47.918;8.112;2024-01-27T22:52:53;92264.38;;;-0.49;85.69
69909;BME280;57190;47.918;8.112;2024-01-27T22:55:18;92260.13;;;-0.50;85.07
69909;BME280;57190;47.918;8.112;2024-01-27T22:57:46;92260.13;;;-0.50;85.46
69909;BME280;57190;47.918;8.112;2024-01-27T23:00:12;92255.88;;;-0.51;85.71
69909;BME280;57190;47.918;8.112;2024-01-27T23:03:13;92262.44;;;-0.55;85.42
69909;BME280;57190;47.918;8.112;2024-01-27T23:05:39;92261.59;;;-0.56;85.75
69909;BME280;57190;47.918;8.112;2024-01-27T23:08:06;92264.38;;;-0.49;86.60
69909;BME280;57190;47.918;8.112;2024-01-27T23:10:32;92257.31;;;-0.49;86.62
69909;BME280;57190;47.918;8.112;2024-01-27T23:12:58;92256.84;;;-0.44;86.94
69909;BME280;57190;47.918;8.112;2024-01-27T23:15:25;92258.63;;;-0.36;87.23
69909;BME280;57190;47.918;8.112;2024-01-27T23:17:54;92257.97;;;-0.30;86.79
69909;BME280;57190;47.918;8.112;2024-01-27T23:20:20;92254.34;;;-0.29;86.60
69909;BME280;57190;47.918;8.112;2024-01-27T23:22:46;92257.31;;;-0.32;86.68
69909;BME280;57190;47.918;8.112;2024-01-27T23:25:14;92249.13;;;-0.37;87.11
69909;BME280;57190;47.918;8.112;2024-01-27T23:27:40;92251.56;;;-0.36;87.44
69909;BME280;57190;47.918;8.112;2024-01-27T23:30:06;92244.06;;;-0.39;87.23
69909;BME280;57190;47.918;8.112;2024-01-27T23:32:33;92256.16;;;-0.38;87.67
69909;BME280;57190;47.918;8.112;2024-01-27T23:34:59;92251.56;;;-0.36;87.46
69909;BME280;57190;47.918;8.112;2024-01-27T23:37:25;92253.88;;;-0.33;86.92
69909;BME280;57190;47.918;8.112;2024-01-27T23:39:51;92243.22;;;-0.31;86.38
69909;BME280;57190;47.918;8.112;2024-01-27T23:42:17;92237.81;;;-0.29;87.08
69909;BME280;57190;47.918;8.112;2024-01-27T23:44:43;92242.88;;;-0.28;86.53
69909;BME280;57190;47.918;8.112;2024-01-27T23:47:09;92236.16;;;-0.22;86.72
69909;BME280;57190;47.918;8.112;2024-01-27T23:49:35;92229.94;;;-0.21;86.96
69909;BME280;57190;47.918;8.112;2024-01-27T23:52:01;92224.69;;;-0.21;86.67
69909;BME280;57190;47.918;8.112;2024-01-27T23:54:35;92225.34;;;-0.27;87.26
69909;BME280;57190;47.918;8.112;2024-01-27T23:57:01;92233.53;;;-0.22;87.49
69909;BME280;57190;47.918;8.112;2024-01-27T23:59:26;92233.66;;;-0.16;87.47
